Time;durP1;ratioP1;P1;durP2;ratioP2;P2;SDS_P1;SDS_P2;PMS_P1;PMS_P2;Temp;Humidity;BMP_temperature;BMP_pressure;BME280_temperature;BME280_humidity;BME280_pressure;Samples;Min_cycle;Max_cycle;Signal;HPM_P1;HPM_P2
2022/04/02 00:00:39;;;;;;;55.80;7.60;;;;;;;12.72;47.13;97617.57;25045;1318;3054781;-70
2022/04/02 00:03:08;;;;;;;60.90;7.60;;;;;;;12.70;47.07;97607.02;25091;1318;3026478;-69
2022/04/02 00:05:38;;;;;;;65.50;8.00;;;;;;;12.62;47.14;97610.75;25072;1318;3051741;-67
2022/04/02 00:08:07;;;;;;;72.30;9.00;;;;;;;12.64;46.96;97609.02;25147;1313;3026709;-71
2022/04/02 00:10:37;;;;;;;52.50;7.10;;;;;;;12.63;46.89;97613.30;25119;1315;3056084;-71
2022/04/02 00:13:06;;;;;;;68.40;7.10;;;;;;;12.68;46.88;97608.40;25097;1315;3026703;-70
2022/04/02 00:15:35;;;;;;;50.20;6.20;;;;;;;12.65;46.72;97603.46;25069;1315;3026868;-65
2022/04/02 00:18:04;;;;;;;63.70;7.20;;;;;;;12.64;46.93;97602.21;25104;1315;3058700;-72
2022/04/02 00:20:34;;;;;;;53.00;6.90;;;;;;;12.72;46.39;97590.52;25043;1315;3026305;-70
2022/04/02 00:25:51;;;;;;;53.00;6.40;;;;;;;12.71;46.28;97596.57;25116;1315;3058938;-68
2022/04/02 00:28:20;;;;;;;63.40;8.60;;;;;;;12.69;46.42;97590.83;25112;1315;3026642;-74
2022/04/02 00:30:50;;;;;;;54.60;7.40;;;;;;;12.67;46.30;97590.09;25111;1315;3055307;-66
2022/04/02 00:33:19;;;;;;;53.40;7.40;;;;;;;12.63;46.50;97594.36;25069;1315;3026801;-69
2022/04/02 00:35:48;;;;;;;41.80;6.60;;;;;;;12.58;46.61;97590.96;25152;1315;3026395;-64
2022/04/02 00:38:17;;;;;;;67.10;7.20;;;;;;;12.58;46.49;97581.65;25055;1315;3054179;-74
2022/04/02 00:40:46;;;;;;;52.80;8.00;;;;;;;12.51;46.96;97580.83;25082;1314;3026171;-63
2022/04/02 00:43:30;;;;;;;63.10;9.10;;;;;;;12.48;47.03;97579.13;25139;1315;3054928;-65
2022/04/02 00:46:01;;;;;;;55.50;7.60;;;;;;;12.44;46.94;97571.45;25067;1315;3052873;-62
2022/04/02 00:48:30;;;;;;;55.00;6.00;;;;;;;12.47;46.98;97564.30;25158;1315;3026375;-71
2022/04/02 00:51:00;;;;;;;52.70;7.40;;;;;;;12.49;46.59;97560.40;25046;1315;3026807;-63
2022/04/02 00:53:35;;;;;;;58.90;7.70;;;;;;;12.49;46.39;97555.59;25082;1315;3051551;-72
2022/04/02 00:56:05;;;;;;;44.30;6.10;;;;;;;12.52;46.45;97556.96;25101;1315;3054618;-71
2022/04/02 00:58:34;;;;;;;47.50;6.60;;;;;;;12.49;46.43;97560.23;25106;1315;3029798;-73
2022/04/02 01:01:03;;;;;;;47.90;7.40;;;;;;;12.49;46.60;97554.61;25036;1315;3027062;-65
2022/04/02 01:03:38;;;;;;;60.20;6.70;;;;;;;12.40;46.45;97556.45;25085;1315;3057194;-71
2022/04/02 01:06:09;;;;;;;64.30;8.20;;;;;;;12.35;46.88;97548.05;25038;1315;3026983;-71
2022/04/02 01:08:40;;;;;;;54.50;7.00;;;;;;;12.33;46.73;97549.20;25074;1315;3026344;-72
2022/04/02 01:11:11;;;;;;;46.30;6.80;;;;;;;12.42;46.18;97553.03;25103;1315;3027557;-67
2022/04/02 01:13:43;;;;;;;53.10;7.40;;;;;;;12.38;46.09;97553.03;25120;1315;3026620;-70
2022/04/02 01:16:12;;;;;;;49.30;6.10;;;;;;;12.34;46.26;97550.14;25113;1315;3027197;-63
2022/04/02 01:18:46;;;;;;;70.30;8.70;;;;;;;12.35;46.20;97546.48;25100;1315;3055174;-67
2022/04/02 01:21:19;;;;;;;48.50;6.60;;;;;;;12.31;46.55;97546.94;25146;1315;3026583;-71
2022/04/02 01:23:49;;;;;;;67.00;7.80;;;;;;;12.32;46.56;97536.68;25068;1315;3026888;-70
2022/04/02 01:26:21;;;;;;;53.20;6.90;;;;;;;12.22;47.23;97535.18;25139;1315;3026809;-71
2022/04/02 01:28:57;;;;;;;55.90;7.40;;;;;;;12.16;47.57;97539.44;25095;1315;3026383;-70
2022/04/02 01:31:31;;;;;;;38.40;6.70;;;;;;;12.12;48.01;97539.69;25086;1315;3050786;-72
2022/04/02 01:34:01;;;;;;;49.30;5.80;;;;;;;12.03;48.39;97537.83;25167;1315;3026894;-72
2022/04/02 01:36:33;;;;;;;49.30;6.70;;;;;;;12.02;48.83;97539.02;25130;1315;3026068;-67
2022/04/02 01:39:12;;;;;;;48.00;7.60;;;;;;;11.95;49.13;97532.70;25140;1315;3054431;-73
2022/04/02 01:41:42;;;;;;;47.60;6.70;;;;;;;11.91;49.15;97532.55;25119;1314;3026731;-67
2022/04/02 01:44:13;;;;;;;46.20;6.20;;;;;;;11.83;49.13;97536.12;25070;1315;3026732;-66
2022/04/02 01:46:44;;;;;;;47.60;7.00;;;;;;;11.77;49.72;97521.17;25043;1315;3027536;-65
2022/04/02 01:49:13;;;;;;;46.10;6.10;;;;;;;11.82;49.56;97515.70;25061;1315;3026815;-67
2022/04/02 01:51:45;;;;;;;37.00;7.20;;;;;;;11.74;49.91;97517.96;25107;1315;3027189;-67
2022/04/02 01:54:19;;;;;;;;;;;;;;;11.78;49.93;97517.64;25145;1315;3070953;-72
2022/04/02 01:56:49;;;;;;;46.40;6.90;;;;;;;11.65;50.35;97522.08;25100;1315;3026650;-67
2022/04/02 01:59:19;;;;;;;42.70;6.70;;;;;;;11.68;50.59;97519.16;25083;1315;3026764;-64
2022/04/02 02:01:51;;;;;;;56.80;7.60;;;;;;;11.59;51.02;97517.32;25050;1315;3027980;-71
2022/04/02 02:04:21;;;;;;;49.40;7.10;;;;;;;11.53;51.47;97517.18;25089;1315;3028667;-71
2022/04/02 02:07:03;;;;;;;46.30;7.20;;;;;;;11.52;51.71;97506.98;25097;1315;3052012;-64
2022/04/02 02:09:33;;;;;;;48.30;6.20;;;;;;;11.54;51.93;97502.23;25106;1315;3030116;-63
2022/04/02 02:12:21;;;;;;;44.00;6.40;;;;;;;11.51;52.39;97505.35;25102;1315;3053383;-75
2022/04/02 02:14:58;;;;;;;42.30;6.90;;;;;;;11.43;52.83;97502.34;25024;1314;3069041;-76
2022/04/02 02:17:47;;;;;;;46.40;6.80;;;;;;;11.49;52.80;97490.64;25071;1316;3049247;-66
2022/04/02 02:20:17;;;;;;;64.10;7.40;;;;;;;11.44;52.96;97481.55;25059;1315;3026415;-73
2022/04/02 02:22:47;;;;;;;39.40;6.30;;;;;;;11.40;53.19;97483.77;25086;1315;3026906;-69
2022/04/02 02:25:17;;;;;;;50.50;6.40;;;;;;;11.42;53.10;97480.58;25138;1314;3048956;-71
2022/04/02 02:27:47;;;;;;;44.70;8.40;;;;;;;11.46;53.13;97476.66;25136;1315;3028565;-65
2022/04/02 02:30:19;;;;;;;52.60;6.90;;;;;;;11.39;53.34;97468.80;25126;1315;3027215;-66
2022/04/02 02:32:48;;;;;;;43.70;6.20;;;;;;;11.34;53.45;97452.54;25056;1315;3026770;-66
2022/04/02 02:38:08;;;;;;;59.40;9.20;;;;;;;11.34;53.53;97465.55;25113;1314;3053151;-64
2022/04/02 02:40:42;;;;;;;45.60;6.10;;;;;;;11.31;53.75;97468.64;25130;1315;3057397;-68
2022/04/02 02:43:12;;;;;;;53.90;7.50;;;;;;;11.29;53.81;97469.19;25102;1315;3026510;-69
2022/04/02 02:45:44;;;;;;;61.60;7.90;;;;;;;11.27;53.88;97476.02;25224;1315;3026409;-68
2022/04/02 02:48:14;;;;;;;47.20;6.80;;;;;;;11.22;54.15;97483.21;25151;1315;3026880;-65
2022/04/02 02:50:48;;;;;;;44.80;6.60;;;;;;;11.09;54.59;97490.48;25134;1315;3070020;-67
2022/04/02 02:53:19;;;;;;;40.10;6.80;;;;;;;11.03;55.10;97483.02;25144;1315;3026111;-71
2022/04/02 02:55:49;;;;;;;40.00;6.40;;;;;;;11.03;55.01;97482.11;25180;1315;3026580;-66
2022/04/02 02:58:19;;;;;;;40.70;6.80;;;;;;;10.91;55.65;97476.20;25093;1315;3028502;-68
2022/04/02 03:00:49;;;;;;;47.40;6.40;;;;;;;10.92;55.43;97467.74;25038;1315;3026204;-71
2022/04/02 03:03:23;;;;;;;42.60;6.70;;;;;;;10.92;55.60;97460.25;25146;1315;3026647;-72
2022/04/02 03:05:55;;;;;;;43.30;7.20;;;;;;;10.98;55.49;97453.37;25106;1315;3026883;-75
2022/04/02 03:08:27;;;;;;;44.30;6.60;;;;;;;11.00;55.30;97450.38;25121;1315;3026034;-71
2022/04/02 03:10:59;;;;;;;44.60;6.90;;;;;;;11.05;55.18;97448.85;25052;1315;3026280;-69
2022/04/02 03:13:31;;;;;;;47.40;7.00;;;;;;;11.08;55.01;97450.53;25066;1315;3026900;-70
2022/04/02 03:16:19;;;;;;;47.00;7.70;;;;;;;11.03;55.20;97461.83;25189;1315;3053114;-68
2022/04/02 03:19:00;;;;;;;55.00;7.90;;;;;;;10.99;55.59;97455.89;25094;1315;3054491;-71
2022/04/02 03:21:29;;;;;;;57.80;7.70;;;;;;;11.05;55.47;97447.08;25050;1315;3026427;-68
2022/04/02 03:24:00;;;;;;;55.90;6.70;;;;;;;10.94;55.92;97445.35;25030;1315;3026198;-67
2022/04/02 03:26:31;;;;;;;53.10;6.50;;;;;;;10.95;56.14;97453.98;25129;1315;3026343;-76
2022/04/02 03:29:05;;;;;;;43.30;6.80;;;;;;;10.98;55.99;97451.42;25072;1315;3050489;-67
2022/04/02 03:31:35;;;;;;;46.90;6.30;;;;;;;11.03;55.98;97446.04;25093;1315;3026916;-76
2022/04/02 03:34:05;;;;;;;41.90;6.30;;;;;;;11.08;55.70;97440.16;25115;1315;3026682;-71
2022/04/02 03:36:34;;;;;;;56.30;7.90;;;;;;;11.02;55.99;97437.15;25054;1315;3026440;-73
2022/04/02 03:39:06;;;;;;;49.00;6.40;;;;;;;11.07;55.71;97427.46;25073;1315;3071569;-68
2022/04/02 03:41:35;;;;;;;58.20;7.80;;;;;;;11.09;55.87;97428.70;25104;1315;3028657;-67
2022/04/02 03:44:07;;;;;;;51.80;6.80;;;;;;;11.10;55.63;97425.10;25104;1315;3029311;-67
2022/04/02 03:49:25;;;;;;;42.10;6.10;;;;;;;11.09;55.97;97417.52;25115;1315;3052092;-65
2022/04/02 03:51:55;;;;;;;42.00;6.70;;;;;;;11.15;55.77;97417.05;25327;1315;3026534;-63
2022/04/02 03:54:25;;;;;;;55.30;7.60;;;;;;;11.12;56.11;97420.66;25515;1315;3026152;-63
2022/04/02 03:56:58;;;;;;;44.40;7.80;;;;;;;11.16;55.99;97419.73;25536;1315;3026819;-61
2022/04/02 03:59:28;;;;;;;65.10;7.90;;;;;;;11.07;56.14;97420.30;25119;1315;3026636;-65
2022/04/02 04:01:58;;;;;;;59.00;6.60;;;;;;;11.09;56.24;97415.71;25138;1315;3026590;-72
2022/04/02 04:04:28;;;;;;;43.80;6.10;;;;;;;11.11;56.26;97409.77;25137;1315;3029659;-70
2022/04/02 04:06:59;;;;;;;57.10;8.40;;;;;;;11.09;56.33;97410.64;25117;1315;3026391;-62
2022/04/02 04:09:30;;;;;;;58.90;6.30;;;;;;;11.11;56.41;97405.39;25154;1315;3027905;-74
2022/04/02 04:12:02;;;;;;;43.50;6.20;;;;;;;11.12;56.27;97403.86;25064;1315;3027315;-70
2022/04/02 04:14:37;;;;;;;53.90;7.00;;;;;;;11.17;56.00;97405.44;25098;1315;3056223;-71
2022/04/02 04:17:06;;;;;;;51.80;7.40;;;;;;;11.13;56.20;97412.83;25093;1315;3026634;-76
2022/04/02 04:19:36;;;;;;;62.50;8.00;;;;;;;11.12;56.34;97411.00;25130;1315;3055278;-68
2022/04/02 04:22:06;;;;;;;50.80;6.30;;;;;;;11.06;56.42;97424.05;25038;1315;3028035;-69
2022/04/02 04:24:36;;;;;;;46.30;5.60;;;;;;;11.09;56.39;97419.93;25085;1315;3026895;-67
2022/04/02 04:27:08;;;;;;;53.60;6.40;;;;;;;11.08;56.47;97422.95;25037;1315;3027129;-76
2022/04/02 04:29:40;;;;;;;55.60;6.70;;;;;;;11.06;56.57;97423.88;25116;1315;3026961;-69
2022/04/02 04:32:09;;;;;;;47.40;6.00;;;;;;;10.98;56.79;97431.79;25018;1315;3026189;-67
2022/04/02 04:34:39;;;;;;;62.00;7.60;;;;;;;10.98;56.90;97433.56;25101;1315;3052262;-65
2022/04/02 04:37:09;;;;;;;49.60;6.70;;;;;;;10.99;56.86;97430.14;25137;1315;3027368;-68
2022/04/02 04:39:40;;;;;;;49.00;6.70;;;;;;;11.00;57.00;97440.89;25091;1315;3029709;-65
2022/04/02 04:42:10;;;;;;;54.10;7.30;;;;;;;11.05;56.85;97433.45;25013;1315;3026620;-71
2022/04/02 04:44:41;;;;;;;52.20;6.10;;;;;;;11.04;56.90;97440.20;25084;1315;3026598;-69
2022/04/02 04:47:11;;;;;;;50.10;6.90;;;;;;;11.04;57.07;97432.27;25066;1315;3026487;-76
2022/04/02 04:49:48;;;;;;;45.20;7.30;;;;;;;11.10;57.04;97437.48;25036;1315;3054211;-69
2022/04/02 04:52:17;;;;;;;46.60;8.60;;;;;;;11.11;57.06;97441.86;25123;1315;3026281;-73
2022/04/02 04:54:46;;;;;;;53.30;6.90;;;;;;;11.11;57.02;97437.77;25142;1315;3026506;-69
2022/04/02 04:57:18;;;;;;;37.70;7.00;;;;;;;11.20;56.84;97431.45;25144;1315;3026811;-68
2022/04/02 05:00:00;;;;;;;48.30;7.10;;;;;;;11.26;56.82;97418.86;25093;1315;3054221;-72
2022/04/02 05:02:32;;;;;;;65.00;7.90;;;;;;;11.33;56.58;97417.08;25145;1315;3026599;-71
2022/04/02 05:05:04;;;;;;;43.80;7.30;;;;;;;11.34;56.65;97418.95;25047;1315;3026860;-70
2022/04/02 05:11:19;;;;;;;45.60;6.20;;;;;;;11.37;56.77;97412.09;25123;1315;3053012;-68
2022/04/02 05:13:52;;;;;;;47.20;7.40;;;;;;;11.42;56.86;97408.85;25108;1315;3058416;-71
2022/04/02 05:16:26;;;;;;;51.60;7.30;;;;;;;11.47;56.89;97411.06;25106;1315;3026679;-68
2022/04/02 05:19:17;;;;;;;53.30;7.80;;;;;;;11.48;57.16;97412.16;25079;1315;3055734;-70
2022/04/02 05:21:47;;;;;;;44.20;7.80;;;;;;;11.53;57.19;97411.88;25129;1315;3026865;-68
2022/04/02 05:24:18;;;;;;;55.00;6.70;;;;;;;11.59;57.18;97409.35;25097;1315;3026725;-70
2022/04/02 05:26:50;;;;;;;46.60;6.80;;;;;;;11.62;57.34;97410.48;25065;1315;3027386;-78
2022/04/02 05:29:20;;;;;;;65.00;8.30;;;;;;;11.67;57.23;97418.40;25151;1315;3026498;-72
2022/04/02 05:31:55;;;;;;;49.50;9.10;;;;;;;11.71;57.42;97411.37;25032;1315;3054009;-65
2022/04/02 05:34:24;;;;;;;55.20;7.00;;;;;;;11.72;57.57;97422.81;25108;1315;3027010;-71
2022/04/02 05:36:53;;;;;;;59.00;7.60;;;;;;;11.80;57.66;97414.15;25027;1315;3027285;-72
2022/04/02 05:39:23;;;;;;;62.00;7.90;;;;;;;11.84;57.73;97407.79;25094;1315;3026065;-69
2022/04/02 05:41:53;;;;;;;55.50;7.00;;;;;;;11.92;57.72;97405.77;25048;1315;3058829;-67
2022/04/02 05:44:23;;;;;;;55.00;7.70;;;;;;;12.00;57.64;97404.66;25074;1315;3026927;-65
2022/04/02 05:46:53;;;;;;;62.40;8.20;;;;;;;12.11;57.58;97409.71;25092;1314;3026904;-70
2022/04/02 05:49:22;;;;;;;56.40;7.60;;;;;;;12.15;57.75;97414.03;25052;1315;3026213;-66
2022/04/02 05:51:51;;;;;;;51.30;8.10;;;;;;;12.23;57.70;97411.82;25094;1315;3050968;-68
2022/04/02 05:54:20;;;;;;;47.90;7.90;;;;;;;12.21;58.05;97415.91;25060;1315;3026108;-70
2022/04/02 05:56:49;;;;;;;58.40;8.00;;;;;;;12.28;58.00;97412.81;25121;1315;3057164;-66
2022/04/02 05:59:19;;;;;;;70.60;9.40;;;;;;;12.34;58.14;97408.86;25131;1315;3027573;-73
2022/04/02 06:01:49;;;;;;;56.10;7.90;;;;;;;12.45;58.18;97414.10;25103;1315;3026603;-67
2022/04/02 06:04:18;;;;;;;60.10;7.80;;;;;;;12.50;58.20;97412.02;25182;1315;3026243;-74
2022/04/02 06:06:47;;;;;;;66.00;9.10;;;;;;;12.62;58.07;97408.13;25090;1315;3026753;-75
2022/04/02 06:09:36;;;;;;;47.40;6.70;;;;;;;12.79;58.02;97400.38;25172;1315;3055859;-74
2022/04/02 06:12:06;;;;;;;55.10;8.30;;;;;;;12.90;57.87;97404.19;25088;1315;3027761;-68
2022/04/02 06:14:55;;;;;;;45.20;6.90;;;;;;;13.02;57.79;97406.52;25067;1315;3070794;-75
2022/04/02 06:17:25;;;;;;;46.00;7.50;;;;;;;13.11;57.74;97412.27;25173;1315;3026274;-66
2022/04/02 06:19:57;;;;;;;46.70;7.40;;;;;;;13.08;58.40;97431.01;25067;1315;3028631;-71
2022/04/02 06:22:26;;;;;;;46.00;7.70;;;;;;;13.16;58.36;97427.58;25082;1315;3026778;-74
2022/04/02 06:24:56;;;;;;;54.60;7.40;;;;;;;13.27;58.23;97413.02;25025;1315;3051017;-71
2022/04/02 06:27:25;;;;;;;53.40;6.70;;;;;;;13.35;57.97;97419.13;25130;1315;3026584;-70
2022/04/02 06:29:57;;;;;;;55.90;7.30;;;;;;;13.49;57.59;97413.80;25059;1315;3069864;-72
2022/04/02 06:32:26;;;;;;;49.20;7.00;;;;;;;13.58;57.56;97409.83;25095;1315;3028105;-68
2022/04/02 06:34:56;;;;;;;50.00;6.40;;;;;;;13.64;57.52;97415.61;25099;1315;3026773;-67
2022/04/02 06:37:25;;;;;;;41.40;7.30;;;;;;;13.75;57.19;97402.29;25141;1315;3026267;-68
2022/04/02 06:39:54;;;;;;;50.40;6.00;;;;;;;13.93;56.91;97410.02;25153;1315;3047820;-68
2022/04/02 06:42:23;;;;;;;43.80;6.40;;;;;;;14.02;56.60;97425.47;25057;1315;3026173;-70
2022/04/02 06:44:56;;;;;;;38.60;7.30;;;;;;;14.08;56.64;97416.16;25158;1315;3068752;-67
2022/04/02 06:47:26;;;;;;;53.30;6.80;;;;;;;14.19;56.13;97418.67;25151;1315;3027010;-71
2022/04/02 06:49:57;;;;;;;37.50;6.30;;;;;;;14.37;55.70;97428.38;25150;1315;3051560;-63
2022/04/02 06:52:27;;;;;;;45.20;6.10;;;;;;;14.40;55.85;97418.55;25130;1315;3030583;-71
2022/04/02 06:54:58;;;;;;;52.80;6.90;;;;;;;14.55;55.31;97423.92;25034;1314;3053780;-67
2022/04/02 06:57:28;;;;;;;51.40;6.70;;;;;;;14.68;55.17;97424.67;25095;1315;3026537;-71
2022/04/02 06:59:57;;;;;;;47.40;5.20;;;;;;;14.76;54.91;97413.11;25101;1315;3025955;-77
2022/04/02 07:02:26;;;;;;;42.30;5.10;;;;;;;14.91;54.23;97432.52;25095;1315;3028482;-74
2022/04/02 07:04:55;;;;;;;40.30;5.70;;;;;;;14.90;54.57;97433.69;25146;1315;3051047;-73
2022/04/02 07:07:31;;;;;;;40.50;6.20;;;;;;;15.00;54.46;97428.19;25110;1315;3071135;-69
2022/04/02 07:10:01;;;;;;;27.90;4.80;;;;;;;15.15;53.63;97422.45;25131;1315;3027484;-71
2022/04/02 07:12:31;;;;;;;56.00;7.30;;;;;;;15.34;53.16;97419.65;25130;1315;3051414;-74
2022/04/02 07:15:01;;;;;;;28.90;5.60;;;;;;;15.54;52.56;97415.30;25094;1315;3026112;-76
2022/04/02 07:17:31;;;;;;;44.00;5.20;;;;;;;15.59;52.42;97419.70;25142;1315;3026653;-65
2022/04/02 07:20:01;;;;;;;28.10;5.00;;;;;;;15.72;51.81;97410.71;25136;1315;3026827;-67
2022/04/02 07:22:31;;;;;;;36.70;5.70;;;;;;;15.75;51.37;97414.70;25107;1315;3027088;-67
2022/04/02 07:25:00;;;;;;;32.60;4.20;;;;;;;15.80;51.26;97414.29;25100;1315;3026818;-71
2022/04/02 07:27:31;;;;;;;26.00;5.50;;;;;;;15.77;51.18;97418.02;25088;1315;3053899;-71
2022/04/02 07:30:03;;;;;;;35.70;5.00;;;;;;;15.94;50.95;97405.00;25103;1315;3052486;-70
2022/04/02 07:32:32;;;;;;;37.80;5.00;;;;;;;16.04;50.42;97412.51;25116;1315;3026384;-70
2022/04/02 07:35:01;;;;;;;28.40;4.20;;;;;;;16.05;50.17;97405.10;25137;1315;3026363;-71
2022/04/02 07:38:14;;;;;;;29.00;4.70;;;;;;;16.15;49.95;97392.77;25144;1315;3055215;-67
2022/04/02 07:41:10;;;;;;;27.00;4.30;;;;;;;16.36;48.63;97403.03;25137;1315;3055600;-65
2022/04/02 07:43:47;;;;;;;30.70;4.10;;;;;;;16.46;48.29;97416.84;25123;1318;3052826;-65
2022/04/02 07:46:21;;;;;;;21.40;3.90;;;;;;;16.63;47.95;97389.67;25013;1318;3053821;-67
2022/04/02 07:48:50;;;;;;;23.10;3.20;;;;;;;16.84;47.36;97397.57;25144;1316;3051739;-72
2022/04/02 07:51:30;;;;;;;22.50;3.60;;;;;;;16.87;46.33;97412.33;25350;1316;3069095;-71
2022/04/02 07:54:01;;;;;;;20.50;2.80;;;;;;;16.86;46.40;97419.14;25104;1318;3026639;-69
2022/04/02 07:56:35;;;;;;;25.30;2.70;;;;;;;16.98;45.94;97408.50;25102;1316;3027005;-70
2022/04/02 07:59:10;;;;;;;12.50;2.80;;;;;;;16.97;45.45;97415.70;25071;1316;3052755;-64
2022/04/02 08:01:40;;;;;;;19.80;2.80;;;;;;;16.95;45.57;97398.17;25167;1315;3059296;-70
2022/04/02 08:04:10;;;;;;;18.80;3.10;;;;;;;17.13;45.29;97394.16;25104;1318;3026163;-70
2022/04/02 08:06:40;;;;;;;25.00;2.60;;;;;;;17.20;45.12;97394.69;25135;1317;3026153;-69
2022/04/02 08:09:19;;;;;;;21.40;3.90;;;;;;;17.27;45.00;97386.52;25105;1317;3054244;-71
2022/04/02 08:11:49;;;;;;;19.20;2.70;;;;;;;17.35;44.53;97384.98;25124;1317;3026451;-62
2022/04/02 08:14:18;;;;;;;22.30;3.60;;;;;;;17.44;44.52;97386.92;25460;1318;3026598;-66
2022/04/02 08:16:48;;;;;;;20.60;3.40;;;;;;;17.50;44.19;97388.98;25535;1314;3053145;-66
2022/04/02 08:19:20;;;;;;;20.20;3.60;;;;;;;17.38;43.85;97397.55;25279;1316;3029647;-74
2022/04/02 08:21:49;;;;;;;26.00;3.90;;;;;;;17.39;44.21;97387.69;25114;1318;3052415;-68
2022/04/02 08:24:18;;;;;;;22.50;4.60;;;;;;;17.39;44.46;97383.55;25095;1315;3027020;-67
2022/04/02 08:26:58;;;;;;;22.10;3.30;;;;;;;17.49;44.23;97389.13;25090;1318;3029979;-76
2022/04/02 08:29:37;;;;;;;31.10;3.50;;;;;;;17.65;44.19;97367.70;25105;1318;3048871;-73
2022/04/02 08:32:37;;;;;;;24.20;3.40;;;;;;;17.87;43.90;97368.54;25117;1318;3053577;-69
2022/04/02 08:35:10;;;;;;;25.40;3.90;;;;;;;17.80;43.41;97377.42;25107;1314;3054932;-75
2022/04/02 08:38:20;;;;;;;18.90;3.10;;;;;;;17.79;43.48;97362.59;25096;1318;3026481;-71
2022/04/02 08:41:09;;;;;;;17.90;3.20;;;;;;;17.96;43.30;97374.20;24903;1324;3053931;-71
2022/04/02 08:43:44;;;;;;;17.70;2.90;;;;;;;17.71;43.70;97386.13;25079;1318;3055905;-74
2022/04/02 08:46:51;;;;;;;21.90;3.70;;;;;;;17.73;43.52;97375.65;25122;1318;3051636;-66
2022/04/02 08:49:36;;;;;;;17.50;3.50;;;;;;;17.83;43.61;97373.95;25113;1315;3071309;-72
2022/04/02 08:52:14;;;;;;;24.10;3.70;;;;;;;18.09;43.02;97357.36;25072;1321;3051745;-72
2022/04/02 08:54:47;;;;;;;29.00;3.90;;;;;;;18.15;42.58;97359.42;25100;1317;3054489;-75
2022/04/02 08:57:28;;;;;;;24.30;3.60;;;;;;;18.15;42.54;97351.35;25124;1318;3053074;-71
2022/04/02 09:00:27;;;;;;;23.90;4.20;;;;;;;18.06;42.46;97350.61;25084;1314;3059361;-67
2022/04/02 09:03:38;;;;;;;19.20;4.80;;;;;;;18.01;42.74;97356.27;25126;1315;3053664;-72
2022/04/02 09:06:40;;;;;;;19.10;4.00;;;;;;;17.98;43.40;97349.20;25119;1318;3053866;-72
2022/04/02 09:09:43;;;;;;;23.40;4.20;;;;;;;18.13;42.86;97340.90;25137;1315;3054273;-75
2022/04/02 09:12:25;;;;;;;25.90;4.60;;;;;;;18.23;42.68;97340.13;25142;1315;3069571;-70
2022/04/02 09:15:06;;;;;;;14.70;3.00;;;;;;;18.21;42.47;97342.73;25091;1318;3052246;-68
2022/04/02 09:17:50;;;;;;;22.30;4.10;;;;;;;18.17;42.86;97338.69;25088;1321;3052151;-70
2022/04/02 09:20:44;;;;;;;25.00;3.80;;;;;;;18.36;42.52;97345.44;25138;1315;3052228;-70
2022/04/02 09:23:32;;;;;;;25.30;4.10;;;;;;;18.47;42.57;97344.69;25115;1314;3059342;-71
2022/04/02 09:26:14;;;;;;;20.80;4.90;;;;;;;18.50;42.48;97356.53;25102;1318;3050446;-74
2022/04/02 09:28:46;;;;;;;29.00;3.70;;;;;;;18.63;42.07;97343.48;25118;1318;3056093;-69
2022/04/02 09:31:39;;;;;;;22.80;3.90;;;;;;;18.66;41.98;97357.14;25088;1315;3026106;-71
2022/04/02 09:34:47;;;;;;;21.30;3.80;;;;;;;18.41;42.20;97372.83;25142;1316;3071657;-66
2022/04/02 09:37:37;;;;;;;32.30;4.50;;;;;;;18.20;43.02;97383.36;25119;1315;3049588;-72
2022/04/02 09:40:10;;;;;;;16.20;3.40;;;;;;;18.03;43.32;97388.08;25099;1320;3055478;-76
2022/04/02 09:42:45;;;;;;;25.20;4.40;;;;;;;18.02;43.74;97360.73;25118;1318;3054596;-74
2022/04/02 09:45:16;;;;;;;26.00;5.40;;;;;;;18.05;43.73;97363.82;25138;1315;3057184;-69
2022/04/02 09:48:04;;;;;;;31.60;4.50;;;;;;;18.04;44.79;97376.02;25113;1318;3027035;-69
2022/04/02 09:50:35;;;;;;;27.80;4.10;;;;;;;17.82;45.89;97381.23;25135;1315;3053731;-69
2022/04/02 09:53:14;;;;;;;20.90;4.20;;;;;;;17.50;47.03;97390.46;25095;1318;3026599;-67
2022/04/02 09:55:53;;;;;;;25.60;4.60;;;;;;;17.44;47.58;97382.30;25118;1315;3069137;-68
2022/04/02 09:58:41;;;;;;;23.50;5.30;;;;;;;17.48;48.25;97373.02;25158;1318;3052223;-68
2022/04/02 10:01:17;;;;;;;26.30;4.10;;;;;;;17.53;47.74;97385.48;25122;1318;3055533;-66
2022/04/02 10:03:49;;;;;;;34.30;6.00;;;;;;;17.55;47.29;97370.70;25132;1315;3053533;-72
2022/04/02 10:06:20;;;;;;;24.70;5.10;;;;;;;17.65;46.83;97367.44;25201;1315;3059226;-75
2022/04/02 10:09:15;;;;;;;22.30;4.30;;;;;;;17.57;46.44;97375.94;25113;1315;3026658;-72
2022/04/02 10:11:52;;;;;;;27.30;4.20;;;;;;;17.67;46.40;97351.16;25117;1320;3053808;-70
2022/04/02 10:14:23;;;;;;;39.10;4.90;;;;;;;17.83;45.91;97348.48;25089;1317;3051806;-71
2022/04/02 10:17:03;;;;;;;22.10;4.80;;;;;;;17.70;45.99;97355.02;25127;1318;3026400;-70
2022/04/02 10:19:32;;;;;;;36.80;5.80;;;;;;;17.85;46.03;97336.41;25137;1318;3048965;-68
2022/04/02 10:22:09;;;;;;;32.40;4.90;;;;;;;17.76;45.99;97349.77;25118;1318;3026712;-71
2022/04/02 10:24:39;;;;;;;47.80;6.10;;;;;;;17.72;46.29;97343.36;25150;1318;3068297;-71
2022/04/02 10:27:11;;;;;;;39.60;6.30;;;;;;;17.94;46.10;97320.84;25153;1318;3026727;-76
2022/04/02 10:29:46;;;;;;;38.60;6.00;;;;;;;18.16;45.56;97312.91;25118;1318;3028886;-67
2022/04/02 10:32:33;;;;;;;44.00;5.70;;;;;;;18.28;44.23;97320.27;25117;1318;3054423;-74
2022/04/02 10:35:05;;;;;;;31.90;5.00;;;;;;;18.69;43.63;97281.60;25092;1316;3059417;-73
2022/04/02 10:37:41;;;;;;;52.60;5.50;;;;;;;18.73;42.29;97276.12;25152;1318;3026930;-72
2022/04/02 10:40:17;;;;;;;40.40;5.50;;;;;;;18.85;41.71;97295.41;25099;1317;3052793;-65
2022/04/02 10:42:57;;;;;;;37.40;4.50;;;;;;;18.81;41.83;97258.48;25070;1316;3053006;-73
2022/04/02 10:45:27;;;;;;;32.20;5.00;;;;;;;18.89;41.68;97253.78;25150;1318;3068652;-70
2022/04/02 10:48:10;;;;;;;30.70;5.00;;;;;;;19.08;41.25;97261.08;25134;1318;3030706;-73
2022/04/02 10:50:40;;;;;;;33.00;5.00;;;;;;;19.26;40.01;97237.77;25173;1316;3052441;-68
2022/04/02 10:53:12;;;;;;;35.40;4.80;;;;;;;19.46;39.54;97246.05;25053;1318;3026778;-70
2022/04/02 10:55:43;;;;;;;25.80;3.80;;;;;;;19.52;39.29;97269.38;25104;1318;3026870;-71
2022/04/02 10:58:13;;;;;;;53.70;5.80;;;;;;;19.27;38.98;97259.64;25122;1318;3027524;-68
2022/04/02 11:00:44;;;;;;;26.30;4.70;;;;;;;19.33;39.15;97263.00;25096;1318;3026908;-74
2022/04/02 11:03:39;;;;;;;39.90;4.80;;;;;;;19.39;39.26;97241.91;25057;1316;3026537;-70
2022/04/02 11:06:08;;;;;;;42.10;4.50;;;;;;;19.39;39.72;97259.13;25097;1318;3070460;-71
2022/04/02 11:08:38;;;;;;;33.70;5.00;;;;;;;19.33;40.35;97257.30;25149;1318;3026615;-66
2022/04/02 11:11:27;;;;;;;24.70;4.20;;;;;;;19.30;40.52;97260.91;25118;1318;3026106;-65
2022/04/02 11:14:02;;;;;;;40.20;5.60;;;;;;;19.39;40.64;97258.41;25063;1318;3055461;-70
2022/04/02 11:16:40;;;;;;;34.00;6.10;;;;;;;19.43;40.52;97233.41;25085;1318;3059189;-66
2022/04/02 11:22:04;;;;;;;34.10;4.90;;;;;;;19.51;40.45;97240.36;25082;1318;3055649;-70
2022/04/02 11:24:50;;;;;;;36.80;5.00;;;;;;;19.34;40.24;97240.27;25102;1316;3051156;-69
2022/04/02 11:27:19;;;;;;;34.70;5.60;;;;;;;19.52;39.95;97216.15;25128;1317;3071711;-71
2022/04/02 11:29:51;;;;;;;43.90;5.30;;;;;;;19.56;40.15;97222.67;25089;1318;3026577;-76
2022/04/02 11:32:25;;;;;;;37.60;5.00;;;;;;;19.55;40.12;97221.56;25170;1318;3055827;-69
2022/04/02 11:34:55;;;;;;;37.10;5.20;;;;;;;19.48;40.23;97239.00;25127;1318;3070138;-73
2022/04/02 11:37:26;;;;;;;37.70;4.50;;;;;;;19.09;41.05;97229.80;25176;1315;3028476;-69
2022/04/02 11:40:04;;;;;;;29.90;4.40;;;;;;;19.42;40.18;97210.13;25114;1318;3051238;-75
2022/04/02 11:42:38;;;;;;;38.20;5.40;;;;;;;19.46;40.21;97190.30;25106;1318;3070449;-78
2022/04/02 11:45:08;;;;;;;45.80;5.10;;;;;;;19.45;39.78;97216.20;24928;1316;3050394;-70
2022/04/02 11:47:37;;;;;;;34.00;5.80;;;;;;;19.56;39.84;97196.41;25169;1318;3027545;-70
2022/04/02 11:50:11;;;;;;;39.10;5.50;;;;;;;19.85;39.05;97182.56;25054;1318;3026756;-71
2022/04/02 11:52:57;;;;;;;31.70;4.70;;;;;;;19.97;39.09;97186.16;25135;1318;3027640;-75
2022/04/02 11:55:27;;;;;;;41.10;5.20;;;;;;;19.60;40.11;97192.35;25133;1318;3050769;-70